createdAt,value
2022-12-26T00:00:31.925Z,96042.34
2022-12-26T00:02:58.995Z,96042.75
2022-12-26T00:05:26.027Z,96044.94
2022-12-26T00:07:52.887Z,96045.56
2022-12-26T00:10:19.753Z,96043.16
2022-12-26T00:12:46.520Z,96050.34
2022-12-26T00:15:13.266Z,96046.53
2022-12-26T00:17:40.016Z,96049.97
2022-12-26T00:20:07.267Z,96048.75
2022-12-26T00:22:34.570Z,96053.97
2022-12-26T00:25:01.351Z,96055.97
2022-12-26T00:27:28.079Z,96056.75
2022-12-26T00:29:55.199Z,96059.97
2022-12-26T00:32:22.014Z,96063.53
2022-12-26T00:34:49.321Z,96057.94
2022-12-26T00:37:16.081Z,96056.06
2022-12-26T00:39:42.854Z,96060.53
2022-12-26T00:42:09.598Z,96069.75
2022-12-26T00:44:36.652Z,96061.13
2022-12-26T00:47:03.568Z,96082.47
2022-12-26T00:50:12.985Z,96072.97
2022-12-26T00:52:17.369Z,96069.84
2022-12-26T00:54:44.128Z,96057.94
2022-12-26T00:57:10.989Z,96067.53
2022-12-26T00:59:37.886Z,96073.19
2022-12-26T01:02:25.405Z,96052.31
2022-12-26T01:04:52.300Z,96069.56
2022-12-26T01:07:19.204Z,96071.78
2022-12-26T01:09:46.044Z,96070.34
2022-12-26T01:12:12.896Z,96080.69
2022-12-26T01:14:40.227Z,96047.06
2022-12-26T01:17:07.003Z,96083.47
2022-12-26T01:19:33.665Z,96096.63
2022-12-26T01:22:00.526Z,96096.06
2022-12-26T01:24:27.372Z,96109.06
2022-12-26T01:26:54.050Z,96111.09
2022-12-26T01:29:20.915Z,96112.25
2022-12-26T01:31:47.937Z,96108.84
2022-12-26T01:34:14.667Z,96101.88
2022-12-26T01:36:42.512Z,96102.75
2022-12-26T01:39:09.493Z,96101.50
2022-12-26T01:41:37.346Z,96107.72
2022-12-26T01:44:07.233Z,96103.09
2022-12-26T01:46:39.009Z,96099.22
2022-12-26T01:49:40.371Z,96094.78
2022-12-26T01:52:13.708Z,96084.50
2022-12-26T01:54:44.149Z,96098.56
2022-12-26T01:57:16.941Z,96102.44
2022-12-26T01:59:46.407Z,96094.94
2022-12-26T02:02:14.320Z,96086.75
2022-12-26T02:05:04.543Z,96093.25
2022-12-26T02:07:34.105Z,96083.66
2022-12-26T02:10:01.304Z,96088.25
2022-12-26T02:12:38.441Z,96083.28
2022-12-26T02:15:10.824Z,96075.28
2022-12-26T02:17:39.136Z,96062.88
2022-12-26T02:20:10.311Z,96070.09
2022-12-26T02:23:01.788Z,96065.69
2022-12-26T02:25:38.426Z,96070.50
2022-12-26T02:28:20.349Z,96065.53
2022-12-26T02:31:13.064Z,96067.34
2022-12-26T02:33:46.714Z,96070.50
2022-12-26T02:36:47.401Z,96065.50
2022-12-26T02:39:45.586Z,96067.75
2022-12-26T02:42:35.776Z,96066.88
2022-12-26T02:45:35.573Z,96064.91
2022-12-26T02:48:14.147Z,96062.09
2022-12-26T02:51:13.148Z,96060.84
2022-12-26T02:54:08.771Z,96072.34
2022-12-26T02:56:59.419Z,96072.53
2022-12-26T03:00:12.922Z,96071.13
2022-12-26T03:03:33.665Z,96061.16
2022-12-26T03:06:23.994Z,96063.72
2022-12-26T03:09:19.015Z,96065.53
2022-12-26T03:12:09.983Z,96055.63
2022-12-26T03:15:04.345Z,96064.75
2022-12-26T03:17:41.141Z,96075.75
2022-12-26T03:20:15.550Z,96075.19
2022-12-26T03:22:48.327Z,96070.34
2022-12-26T03:25:43.875Z,96081.06
2022-12-26T03:28:10.756Z,96092.19
2022-12-26T03:30:50.084Z,96096.66
2022-12-26T03:33:41.492Z,96089.56
2022-12-26T03:36:15.271Z,96088.25
2022-12-26T03:39:09.390Z,96089.63
2022-12-26T03:42:09.887Z,96107.44
2022-12-26T03:45:06.050Z,96104.91
2022-12-26T03:48:11.905Z,96101.53
2022-12-26T03:51:03.442Z,96111.47
2022-12-26T03:53:55.641Z,96113.88
2022-12-26T03:56:54.279Z,96105.91
2022-12-26T03:59:47.492Z,96097.66
2022-12-26T04:02:35.103Z,96106.06
2022-12-26T04:05:24.095Z,96107.00
2022-12-26T04:08:18.923Z,96107.34
2022-12-26T04:11:11.032Z,96102.94
2022-12-26T04:14:12.586Z,96108.72
2022-12-26T04:17:05.086Z,96104.44
2022-12-26T04:19:58.768Z,96095.19
2022-12-26T04:22:53.345Z,96097.03
2022-12-26T04:25:50.611Z,96096.41
2022-12-26T04:28:38.758Z,96089.34
2022-12-26T04:31:34.131Z,96091.28
2022-12-26T04:34:25.627Z,96088.50
2022-12-26T04:37:25.403Z,96096.72
2022-12-26T04:40:15.307Z,96084.16
2022-12-26T04:43:48.112Z,96095.44
2022-12-26T04:45:50.467Z,96097.81
2022-12-26T04:48:35.803Z,96092.22
2022-12-26T04:51:02.625Z,96102.94
2022-12-26T04:53:29.385Z,96106.75
2022-12-26T04:55:56.195Z,96111.06
2022-12-26T04:58:24.392Z,96110.75
2022-12-26T05:00:51.355Z,96112.03
2022-12-26T05:03:36.915Z,96103.81
2022-12-26T05:06:42.439Z,96087.75
2022-12-26T05:09:30.265Z,96115.50
2022-12-26T05:11:57.111Z,96111.91
2022-12-26T05:14:23.871Z,96117.28
2022-12-26T05:17:09.479Z,96116.66
2022-12-26T05:19:55.080Z,96124.31
2022-12-26T05:22:50.300Z,96124.44
2022-12-26T05:25:39.685Z,96132.03
2022-12-26T05:28:28.799Z,96141.44
2022-12-26T05:30:55.745Z,96146.59
2022-12-26T05:33:41.161Z,96144.22
2022-12-26T05:36:09.281Z,96150.94
2022-12-26T05:38:37.232Z,96151.72
2022-12-26T05:41:04.400Z,96145.88
2022-12-26T05:43:31.317Z,96142.81
2022-12-26T05:45:58.593Z,96145.41
2022-12-26T05:48:26.406Z,96141.53
2022-12-26T05:50:53.436Z,96141.44
2022-12-26T05:53:20.254Z,96153.59
2022-12-26T05:55:47.038Z,96147.41
2022-12-26T05:58:13.812Z,96143.69
2022-12-26T06:00:40.626Z,96143.34
2022-12-26T06:03:08.598Z,96136.22
2022-12-26T06:05:35.670Z,96141.41
2022-12-26T06:08:02.525Z,96146.25
2022-12-26T06:10:29.861Z,96150.13
2022-12-26T06:12:57.000Z,96154.91
2022-12-26T06:15:23.828Z,96154.19
2022-12-26T06:17:50.637Z,96154.63
2022-12-26T06:20:18.053Z,96156.91
2022-12-26T06:22:44.841Z,96152.81
2022-12-26T06:25:11.550Z,96149.91
2022-12-26T06:27:38.492Z,96153.72
2022-12-26T06:30:05.828Z,96159.91
2022-12-26T06:32:33.703Z,96167.66
2022-12-26T06:35:00.472Z,96164.72
2022-12-26T06:37:27.281Z,96165.44
2022-12-26T06:39:54.034Z,96165.34
2022-12-26T06:42:20.699Z,96162.06
2022-12-26T06:44:47.437Z,96172.97
2022-12-26T06:47:14.291Z,96165.97
2022-12-26T06:49:41.248Z,96172.88
2022-12-26T06:52:08.587Z,96172.50
2022-12-26T06:54:35.366Z,96178.78
2022-12-26T06:57:02.072Z,96177.25
2022-12-26T06:59:29.084Z,96173.75
2022-12-26T07:01:56.040Z,96179.44
2022-12-26T07:04:22.884Z,96170.63
2022-12-26T07:06:49.684Z,96183.09
2022-12-26T07:09:19.036Z,96181.19
2022-12-26T07:11:49.403Z,96178.81
2022-12-26T07:14:16.570Z,96191.72
2022-12-26T07:16:45.262Z,96184.72
2022-12-26T07:19:14.228Z,96193.03
2022-12-26T07:21:41.941Z,96185.75
2022-12-26T07:24:21.069Z,96189.38
2022-12-26T07:26:49.192Z,96196.59
2022-12-26T07:29:16.368Z,96198.28
2022-12-26T07:31:43.184Z,96190.28
2022-12-26T07:34:10.398Z,96187.19
2022-12-26T07:36:37.240Z,96177.84
2022-12-26T07:39:04.154Z,96177.59
2022-12-26T07:41:49.369Z,96181.09
2022-12-26T07:44:16.531Z,96171.50
2022-12-26T07:46:43.759Z,96171.72
2022-12-26T07:49:12.591Z,96174.94
2022-12-26T07:51:39.646Z,96179.16
2022-12-26T07:54:10.969Z,96177.97
2022-12-26T07:56:38.053Z,96172.16
2022-12-26T07:59:04.943Z,96154.50
2022-12-26T08:01:32.029Z,96163.69
2022-12-26T08:03:58.977Z,96171.91
2022-12-26T08:06:25.896Z,96160.44
2022-12-26T08:08:52.759Z,96157.97
2022-12-26T08:11:22.802Z,96159.13
2022-12-26T08:13:50.636Z,96160.81
2022-12-26T08:16:17.593Z,96156.59
2022-12-26T08:18:44.964Z,96164.50
2022-12-26T08:21:12.170Z,96159.03
2022-12-26T08:23:39.531Z,96166.50
2022-12-26T08:26:08.827Z,96159.41
2022-12-26T08:28:36.203Z,96168.00
2022-12-26T08:31:10.885Z,96177.56
2022-12-26T08:33:37.676Z,96170.75
2022-12-26T08:36:06.342Z,96171.34
2022-12-26T08:38:34.014Z,96166.69
2022-12-26T08:41:01.435Z,96167.09
2022-12-26T08:44:03.572Z,96165.94
2022-12-26T08:46:16.249Z,96144.06
2022-12-26T08:48:44.390Z,96147.31
2022-12-26T08:51:14.695Z,96149.09
2022-12-26T08:53:41.755Z,96146.38
2022-12-26T08:56:13.611Z,96140.25
2022-12-26T08:58:41.644Z,96144.00
2022-12-26T09:01:12.115Z,96136.91
2022-12-26T09:03:40.034Z,96125.88
2022-12-26T09:06:07.249Z,96120.50
2022-12-26T09:08:35.954Z,96133.25
2022-12-26T09:11:13.390Z,96126.88
2022-12-26T09:13:41.571Z,96123.13
2022-12-26T09:16:14.531Z,96127.44
2022-12-26T09:18:42.574Z,96127.28
2022-12-26T09:21:10.961Z,96124.34
2022-12-26T09:23:39.007Z,96125.47
2022-12-26T09:26:08.861Z,96130.38
2022-12-26T09:28:36.673Z,96117.88
2022-12-26T09:31:06.311Z,96124.03
2022-12-26T09:33:33.508Z,96120.41
2022-12-26T09:36:04.024Z,96111.53
2022-12-26T09:38:32.528Z,96114.06
2022-12-26T09:41:36.825Z,96108.34
2022-12-26T09:44:03.585Z,96106.38
2022-12-26T09:46:51.792Z,96104.31
2022-12-26T09:49:26.109Z,96102.38
2022-12-26T09:51:57.620Z,96102.28
2022-12-26T09:54:38.148Z,96096.22
2022-12-26T09:57:15.205Z,96089.38
2022-12-26T10:00:05.121Z,96100.22
2022-12-26T10:02:39.314Z,96090.63
2022-12-26T10:05:06.985Z,96091.91
2022-12-26T10:07:44.545Z,96093.22
2022-12-26T10:10:14.377Z,96080.50
2022-12-26T10:13:13.035Z,96075.13
2022-12-26T10:15:51.996Z,96076.31
2022-12-26T10:18:56.893Z,96065.44
2022-12-26T10:21:36.288Z,96068.53
2022-12-26T10:24:20.537Z,96061.16
2022-12-26T10:27:02.175Z,96061.97
2022-12-26T10:29:38.920Z,96052.88
2022-12-26T10:32:14.237Z,96055.44
2022-12-26T10:34:44.681Z,96053.25
2022-12-26T10:37:27.133Z,96045.63
2022-12-26T10:40:06.111Z,96052.56
2022-12-26T10:42:44.407Z,96041.25
2022-12-26T10:45:22.043Z,96040.78
2022-12-26T10:47:51.864Z,96041.38
2022-12-26T10:50:27.913Z,96033.72
2022-12-26T10:52:59.126Z,96030.69
2022-12-26T10:55:34.769Z,96034.13
2022-12-26T10:58:26.099Z,96029.25
2022-12-26T11:00:53.701Z,96031.38
2022-12-26T11:03:21.767Z,96027.00
2022-12-26T11:06:08.968Z,96023.38
2022-12-26T11:08:47.564Z,96021.00
2022-12-26T11:11:23.835Z,96008.50
2022-12-26T11:14:01.340Z,96017.63
2022-12-26T11:16:40.338Z,96006.44
2022-12-26T11:19:07.151Z,95992.34
2022-12-26T11:21:34.230Z,95992.59
2022-12-26T11:24:19.766Z,95988.97
2022-12-26T11:26:47.062Z,95988.31
2022-12-26T11:29:19.411Z,95994.06
2022-12-26T11:32:04.207Z,95984.94
2022-12-26T11:34:37.980Z,95976.00
2022-12-26T11:37:07.138Z,95990.22
2022-12-26T11:39:38.252Z,95991.19
2022-12-26T11:42:13.296Z,95983.22
2022-12-26T11:44:45.701Z,95982.41
2022-12-26T11:47:19.337Z,95975.56
2022-12-26T11:50:03.845Z,95975.81
2022-12-26T11:52:44.488Z,95966.59
2022-12-26T11:55:34.017Z,95971.53
2022-12-26T11:58:07.059Z,95964.38
2022-12-26T12:00:42.280Z,95956.47
2022-12-26T12:03:32.410Z,95948.81
2022-12-26T12:06:10.089Z,95943.94
2022-12-26T12:08:51.868Z,95933.91
2022-12-26T12:11:47.432Z,95926.59
2022-12-26T12:14:45.118Z,95931.63
2022-12-26T12:17:20.968Z,95919.03
2022-12-26T12:20:06.758Z,95931.03
2022-12-26T12:22:55.364Z,95922.69
2022-12-26T12:25:34.595Z,95926.25
2022-12-26T12:28:25.850Z,95926.22
2022-12-26T12:31:07.581Z,95918.09
2022-12-26T12:33:43.353Z,95921.28
2022-12-26T12:36:32.522Z,95916.25
2022-12-26T12:39:31.728Z,95914.81
2022-12-26T12:42:15.500Z,95918.31
2022-12-26T12:45:19.328Z,95904.59
2022-12-26T12:48:22.826Z,95906.56
2022-12-26T12:51:11.032Z,95908.72
2022-12-26T12:54:16.189Z,95909.53
2022-12-26T12:57:25.146Z,95898.06
2022-12-26T13:00:13.951Z,95908.25
2022-12-26T13:02:40.798Z,95909.09
2022-12-26T13:05:23.357Z,95909.22
2022-12-26T13:08:12.407Z,95903.06
2022-12-26T13:10:49.552Z,95911.59
2022-12-26T13:13:26.564Z,95907.16
2022-12-26T13:16:00.471Z,95904.19
2022-12-26T13:18:33.613Z,95902.38
2022-12-26T13:21:05.962Z,95897.84
2022-12-26T13:24:07.133Z,95913.94
2022-12-26T13:26:40.373Z,95924.66
2022-12-26T13:29:16.290Z,95920.97
2022-12-26T13:31:47.588Z,95917.06
2022-12-26T13:34:19.486Z,95916.56
2022-12-26T13:36:49.043Z,95920.97
2022-12-26T13:39:30.796Z,95924.56
2022-12-26T13:42:22.765Z,95926.16
2022-12-26T13:44:53.457Z,95918.44
2022-12-26T13:47:39.295Z,95915.28
2022-12-26T13:50:48.542Z,95922.16
2022-12-26T13:53:23.777Z,95924.69
2022-12-26T13:56:04.837Z,95930.66
2022-12-26T13:58:56.390Z,95930.03
2022-12-26T14:01:53.704Z,95923.88
2022-12-26T14:05:19.883Z,95919.81
2022-12-26T14:08:04.129Z,95912.97
2022-12-26T14:10:40.920Z,95925.50
2022-12-26T14:13:30.946Z,95919.38
2022-12-26T14:16:16.318Z,95910.19
2022-12-26T14:19:04.574Z,95918.66
2022-12-26T14:22:01.034Z,95921.25
2022-12-26T14:24:43.375Z,95920.28
2022-12-26T14:27:42.457Z,95929.19
2022-12-26T14:30:23.541Z,95922.22
2022-12-26T14:33:23.471Z,95932.66
2022-12-26T14:36:01.376Z,95928.28
2022-12-26T14:38:36.080Z,95932.31
2022-12-26T14:41:07.859Z,95932.75
2022-12-26T14:43:42.146Z,95931.16
2022-12-26T14:46:31.370Z,95934.25
2022-12-26T14:49:21.821Z,95936.78
2022-12-26T14:51:48.995Z,95941.97
2022-12-26T14:54:35.307Z,95939.13
2022-12-26T14:57:40.132Z,95947.88
2022-12-26T15:00:20.945Z,95953.94
2022-12-26T15:03:27.333Z,95940.09
2022-12-26T15:06:04.759Z,95946.78
2022-12-26T15:08:54.236Z,95932.63
2022-12-26T15:11:42.231Z,95930.53
2022-12-26T15:14:32.621Z,95935.56
2022-12-26T15:17:26.081Z,95930.16
2022-12-26T15:20:11.743Z,95927.78
2022-12-26T15:22:51.027Z,95924.09
2022-12-26T15:25:44.136Z,95917.28
2022-12-26T15:28:17.944Z,95912.63
2022-12-26T15:30:48.442Z,95923.13
2022-12-26T15:33:29.290Z,95916.50
2022-12-26T15:36:16.925Z,95914.97
2022-12-26T15:38:50.139Z,95919.88
2022-12-26T15:41:46.042Z,95919.88
2022-12-26T15:44:33.338Z,95938.75
2022-12-26T15:47:18.010Z,95933.91
2022-12-26T15:50:03.676Z,95927.69
2022-12-26T15:52:53.963Z,95926.63
2022-12-26T15:55:40.842Z,95932.44
2022-12-26T15:58:19.969Z,95932.19
2022-12-26T16:00:52.811Z,95925.84
2022-12-26T16:03:49.815Z,95927.28
2022-12-26T16:06:31.758Z,95933.97
2022-12-26T16:09:06.487Z,95937.00
2022-12-26T16:11:47.956Z,95944.88
2022-12-26T16:14:27.449Z,95948.72
2022-12-26T16:17:15.462Z,95944.97
2022-12-26T16:19:45.370Z,95956.94
2022-12-26T16:22:43.866Z,95945.19
2022-12-26T16:25:23.601Z,95947.72
2022-12-26T16:27:54.681Z,95959.63
2022-12-26T16:30:25.325Z,95951.03
2022-12-26T16:32:53.087Z,95961.34
2022-12-26T16:35:31.386Z,95959.47
2022-12-26T16:38:00.348Z,95954.72
2022-12-26T16:40:42.010Z,95956.72
2022-12-26T16:43:18.483Z,95948.75
2022-12-26T16:45:47.855Z,95952.91
2022-12-26T16:48:17.308Z,95957.50
2022-12-26T16:50:55.775Z,95966.63
2022-12-26T16:53:40.469Z,95952.31
2022-12-26T16:56:18.008Z,95968.59
2022-12-26T16:58:44.842Z,95970.75
2022-12-26T17:01:20.088Z,95972.09
2022-12-26T17:04:17.172Z,95984.03
2022-12-26T17:07:07.036Z,95983.56
2022-12-26T17:09:44.808Z,95982.53
2022-12-26T17:12:24.717Z,95988.16
2022-12-26T17:14:53.322Z,95984.75
2022-12-26T17:17:22.977Z,96002.91
2022-12-26T17:19:54.213Z,95998.97
2022-12-26T17:22:29.459Z,96000.94
2022-12-26T17:25:17.223Z,96008.59
2022-12-26T17:27:45.034Z,95978.03
2022-12-26T17:30:25.703Z,95997.50
2022-12-26T17:32:52.575Z,95993.91
2022-12-26T17:35:26.305Z,95985.63
2022-12-26T17:38:01.326Z,95991.34
2022-12-26T17:40:41.287Z,95986.06
2022-12-26T17:43:20.034Z,95993.31
2022-12-26T17:45:47.383Z,95992.28
2022-12-26T17:48:14.385Z,95993.19
2022-12-26T17:50:44.004Z,95987.16
2022-12-26T17:53:26.061Z,95980.00
2022-12-26T17:55:54.989Z,95972.91
2022-12-26T17:58:22.376Z,95978.75
2022-12-26T18:00:50.259Z,95976.44
2022-12-26T18:03:17.776Z,95967.03
2022-12-26T18:05:46.305Z,95960.09
2022-12-26T18:08:44.585Z,95961.06
2022-12-26T18:11:13.201Z,95960.69
2022-12-26T18:13:40.651Z,95966.44
2022-12-26T18:16:11.369Z,95958.44
2022-12-26T18:18:43.680Z,95957.03
2022-12-26T18:21:14.023Z,95970.38
2022-12-26T18:23:41.091Z,95951.50
2022-12-26T18:26:24.060Z,95956.19
2022-12-26T18:28:51.979Z,95954.06
2022-12-26T18:31:21.628Z,95952.13
2022-12-26T18:33:48.332Z,95947.28
2022-12-26T18:36:17.346Z,95949.22
2022-12-26T18:38:44.810Z,95899.38
2022-12-26T18:41:17.287Z,95956.00
2022-12-26T18:43:44.239Z,95944.53
2022-12-26T18:46:20.648Z,95941.03
2022-12-26T18:48:48.029Z,95936.22
2022-12-26T18:51:15.318Z,95944.03
2022-12-26T18:53:42.172Z,95945.16
2022-12-26T18:56:15.116Z,95945.09
2022-12-26T18:58:41.843Z,95941.91
2022-12-26T19:01:13.384Z,95938.94
2022-12-26T19:03:40.950Z,95940.41
2022-12-26T19:06:13.291Z,95937.41
2022-12-26T19:08:40.301Z,95942.78
2022-12-26T19:11:07.145Z,95943.97
2022-12-26T19:13:33.837Z,95945.41
2022-12-26T19:16:00.695Z,95946.84
2022-12-26T19:18:27.504Z,95953.53
2022-12-26T19:20:54.187Z,95953.25
2022-12-26T19:23:20.945Z,95945.09
2022-12-26T19:25:47.809Z,95945.28
2022-12-26T19:28:14.539Z,95949.22
2022-12-26T19:30:41.466Z,95942.06
2022-12-26T19:33:09.645Z,95949.16
2022-12-26T19:35:36.433Z,95940.88
2022-12-26T19:38:03.380Z,95945.03
2022-12-26T19:40:32.258Z,95933.88
2022-12-26T19:42:59.019Z,95943.78
2022-12-26T19:45:25.909Z,95934.19
2022-12-26T19:47:53.761Z,95940.16
2022-12-26T19:50:20.704Z,95940.47
2022-12-26T19:52:47.439Z,95941.53
2022-12-26T19:55:14.280Z,95942.72
2022-12-26T19:57:41.005Z,95941.03
2022-12-26T20:00:08.792Z,95940.28
2022-12-26T20:02:41.758Z,95947.06
2022-12-26T20:05:09.332Z,95952.03
2022-12-26T20:07:36.330Z,95953.22
2022-12-26T20:10:04.348Z,95953.44
2022-12-26T20:12:31.157Z,95951.06
2022-12-26T20:14:57.972Z,95949.41
2022-12-26T20:17:24.806Z,95961.38
2022-12-26T20:19:52.421Z,95966.59
2022-12-26T20:22:19.321Z,95958.06
2022-12-26T20:24:47.169Z,95968.25
2022-12-26T20:27:14.290Z,95949.78
2022-12-26T20:29:42.037Z,95954.28
2022-12-26T20:32:09.000Z,95957.84
2022-12-26T20:34:35.840Z,95954.28
2022-12-26T20:37:02.741Z,95950.47
2022-12-26T20:39:31.287Z,95955.25
2022-12-26T20:41:58.087Z,95949.03
2022-12-26T20:44:25.382Z,95946.47
2022-12-26T20:46:52.198Z,95943.44
2022-12-26T20:49:19.040Z,95949.84
2022-12-26T20:51:46.013Z,95938.81
2022-12-26T20:54:14.865Z,95939.03
2022-12-26T20:56:42.609Z,95948.59
2022-12-26T20:59:09.633Z,95939.63
2022-12-26T21:01:37.789Z,95947.03
2022-12-26T21:04:05.158Z,95951.88
2022-12-26T21:06:34.964Z,95939.03
2022-12-26T21:09:03.040Z,95934.66
2022-12-26T21:11:38.046Z,95941.63
2022-12-26T21:14:10.155Z,95942.03
2022-12-26T21:16:40.169Z,95939.03
2022-12-26T21:19:14.295Z,95933.47
2022-12-26T21:21:44.325Z,95944.06
2022-12-26T21:24:15.658Z,95941.78
2022-12-26T21:26:43.518Z,95950.06
2022-12-26T21:29:31.879Z,95950.25
2022-12-26T21:32:00.509Z,95943.06
2022-12-26T21:34:29.770Z,95954.19
2022-12-26T21:37:20.998Z,95951.06
2022-12-26T21:39:49.578Z,95947.41
2022-12-26T21:42:16.811Z,95939.22
2022-12-26T21:44:43.816Z,95949.72
2022-12-26T21:47:10.604Z,95943.34
2022-12-26T21:49:37.787Z,95953.00
2022-12-26T21:52:06.386Z,95946.44
2022-12-26T21:54:52.391Z,95938.63
2022-12-26T21:57:19.714Z,95943.66
2022-12-26T21:59:59.153Z,95940.00
2022-12-26T22:02:52.345Z,95945.22
2022-12-26T22:05:24.112Z,95942.66
2022-12-26T22:07:59.592Z,95940.28
2022-12-26T22:10:49.578Z,95944.69
2022-12-26T22:13:17.577Z,95936.03
2022-12-26T22:16:04.458Z,95936.03
2022-12-26T22:18:48.408Z,95939.03
2022-12-26T22:21:20.379Z,95936.03
2022-12-26T22:23:50.568Z,95931.44
2022-12-26T22:26:19.380Z,95941.44
2022-12-26T22:28:46.916Z,95936.25
2022-12-26T22:31:22.338Z,95937.47
2022-12-26T22:33:58.123Z,95933.06
2022-12-26T22:36:26.222Z,95934.25
2022-12-26T22:38:53.069Z,95941.47
2022-12-26T22:41:19.980Z,95941.47
2022-12-26T22:43:46.749Z,95929.25
2022-12-26T22:46:14.172Z,95931.06
2022-12-26T22:48:41.664Z,95933.06
2022-12-26T22:51:09.682Z,95923.44
2022-12-26T22:53:36.480Z,95934.94
2022-12-26T22:56:05.189Z,95928.94
2022-12-26T22:58:32.836Z,95936.13
2022-12-26T23:01:00.239Z,95939.81
2022-12-26T23:03:27.588Z,95930.50
2022-12-26T23:05:55.144Z,95944.97
2022-12-26T23:08:25.240Z,95940.16
2022-12-26T23:10:55.086Z,95946.16
2022-12-26T23:13:22.257Z,95951.00
2022-12-26T23:16:13.916Z,95946.44
2022-12-26T23:19:14.505Z,95942.38
2022-12-26T23:21:45.037Z,95934.13
2022-12-26T23:24:15.649Z,95934.13
2022-12-26T23:26:46.483Z,95923.75
2022-12-26T23:29:37.851Z,95933.78
2022-12-26T23:32:05.574Z,95922.28
2022-12-26T23:34:32.330Z,95919.66
2022-12-26T23:36:59.211Z,95921.13
2022-12-26T23:39:26.022Z,95918.03
2022-12-26T23:41:53.009Z,95917.38
2022-12-26T23:44:19.794Z,95910.59
2022-12-26T23:46:47.785Z,95907.38
2022-12-26T23:49:15.957Z,95902.16
2022-12-26T23:51:43.064Z,95905.75
2022-12-26T23:54:10.826Z,95899.78
2022-12-26T23:56:37.882Z,95888.78
2022-12-26T23:59:05.449Z,95889.19
